M I D A S
Marine Information and Data Acquisition System
Tripno 1058 of the Zeeleeuw from 2006-03-29 06:38:57 to 2006-03-29 13:25:43
Back to CruiseResearch ActivitiesStationsMapUnderway DataData graphs

EquipmentUnitsComment
TimeDGPSUTC
LatitudeDGPSDM.mWGS84
LongitudeDGPSDM.mWGS84
TemperatureSBE03/SBE38deg celciusITS90
ConductivitySBE21S/mITS90
SalinitySBE21 Practical Salinity Units
ChlorophylAChelsea fluorimeterg/lCalibrated in Aceton
Missing or incorrect values are displayed as -999
Sea surface data collected by the RV Zeeleeuw from 2006-03-29 06:39:03 to 2006-03-29 13:39:00
Time Latitude Longitude Temperature Conductivity Salinity ChlorophylA
2006-03-29 06:40:08 51°13.61 2°56.047 -999 3.830296 28.956143 25.815469
2006-03-29 06:41:08 51°13.64 2°55.942 -999 3.102649 27.977618 22.714204
2006-03-29 06:42:08 51°13.684 2°55.833 -999 2.709907 24.291733 35.152973
2006-03-29 06:43:08 51°13.708 2°55.751 -999 2.647596 24.772221 34.546204
2006-03-29 06:44:08 51°13.719 2°55.752 -999 2.531652 23.814487 32.017999
2006-03-29 06:45:08 51°13.715 2°55.741 -999 2.673542 25.407411 32.287674
2006-03-29 06:46:08 51°13.727 2°55.729 -999 2.536304 24.039124 33.905725
2006-03-29 06:47:08 51°13.784 2°55.671 -999 2.520806 23.947942 31.141554
2006-03-29 06:48:08 51°13.887 2°55.588 -999 2.534858 24.097133 29.860597
2006-03-29 06:49:08 51°14.007 2°55.504 -999 2.534135 24.122052 33.0967
2006-03-29 06:50:08 51°14.111 2°55.427 -999 2.655458 25.429489 31.613486
2006-03-29 06:51:08 51°14.218 2°55.326 -999 2.699798 25.889888 30.973007
2006-03-29 06:52:08 51°14.305 2°55.181 -999 2.563688 24.476004 29.354956
2006-03-29 06:53:07 51°14.392 2°55.035 -999 2.425654 23.011931 23.52323
2006-03-29 06:54:07 51°14.519 2°54.862 -999 2.657628 25.462658 31.074136
2006-03-29 06:55:07 51°14.691 2°54.697 -999 2.696078 25.874389 31.916871
2006-03-29 06:56:08 51°14.865 2°54.51 -999 3.00482 29.168775 31.310101
2006-03-29 06:57:08 51°15.037 2°54.339 -999 3.010095 29.209525 34.242819
2006-03-29 06:58:08 51°15.214 2°54.19 -999 3.113952 30.311362 35.624905
2006-03-29 06:59:08 51°15.388 2°54.014 -999 2.700212 25.936269 35.32152
2006-03-29 07:00:07 51°15.57 2°53.859 -999 2.749623 26.474061 28.613349
2006-03-29 07:01:08 51°15.756 2°53.691 -999 3.040195 29.592358 35.287811
2006-03-29 07:02:08 51°15.941 2°53.542 -999 3.02168 29.391735 35.726033
2006-03-29 07:03:08 51°16.123 2°53.388 -999 3.156579 30.892652 34.20911
2006-03-29 07:04:08 51°16.305 2°53.232 -999 2.419665 23.145797 31.815742
2006-03-29 07:05:08 51°16.488 2°53.076 -999 3.19352 31.483773 35.726033
2006-03-29 07:06:08 51°16.672 2°52.926 -999 3.087058 30.364492 38.220529
2006-03-29 07:07:07 51°16.846 2°52.781 -999 3.073714 30.233486 33.804597
2006-03-29 07:08:07 51°17.018 2°52.624 -999 2.659596 25.816982 37.310375
2006-03-29 07:09:07 51°17.188 2°52.465 -999 2.862732 28.022321 36.804734
2006-03-29 07:10:07 51°17.344 2°52.261 -999 2.673446 25.994081 37.310375
2006-03-29 07:11:08 51°17.461 2°51.982 -999 2.915779 28.630085 27.096426
2006-03-29 07:12:07 51°17.564 2°51.699 -999 2.754382 26.896757 36.872153
2006-03-29 07:13:08 51°17.667 2°51.408 -999 3.042269 30.034965 36.771024
2006-03-29 07:14:08 51°17.771 2°51.12 -999 2.683266 26.177426 29.523503
2006-03-29 07:15:07 51°17.868 2°50.822 -999 2.620117 25.531765 36.197965
2006-03-29 07:16:08 51°17.962 2°50.507 -999 2.711692 26.557272 36.973281
2006-03-29 07:17:08 51°18.055 2°50.195 -999 3.039995 30.18134 31.006717
2006-03-29 07:18:08 51°18.158 2°49.891 -999 2.515647 24.53007 24.871606
2006-03-29 07:19:08 51°18.268 2°49.595 -999 2.984142 29.610409 29.557212
2006-03-29 07:20:08 51°18.374 2°49.294 -999 3.036789 30.21648 40.580187
2006-03-29 07:21:08 51°18.461 2°48.975 -999 2.645957 25.970536 35.759742
2006-03-29 07:22:08 51°18.551 2°48.658 -999 3.127617 31.222484 34.883298
2006-03-29 07:23:07 51°18.639 2°48.343 -999 3.153483 31.531982 39.434067
2006-03-29 07:24:08 51°18.728 2°48.011 -999 3.029239 30.168664 31.040426
2006-03-29 07:25:08 51°18.808 2°47.679 -999 2.706318 26.642893 37.445212
2006-03-29 07:26:07 51°18.886 2°47.35 -999 2.5297 24.742245 34.714751
2006-03-29 07:27:08 51°18.968 2°47.007 -999 2.988384 29.787453 39.737452
2006-03-29 07:28:07 51°19.047 2°46.673 -999 2.396532 23.43886 30.939298
2006-03-29 07:29:08 51°19.131 2°46.328 -999 2.985282 29.87657 40.917281
2006-03-29 07:30:08 51°19.213 2°45.99 -999 2.981559 29.836259 38.625042
2006-03-29 07:31:08 51°19.295 2°45.653 -999 2.934089 29.340233 35.051845
2006-03-29 07:32:08 51°19.382 2°45.321 -999 2.561321 25.291552 37.242956
2006-03-29 07:33:08 51°19.478 2°44.994 -999 2.327431 22.780204 27.130136
2006-03-29 07:34:08 51°19.574 2°44.664 -999 3.046516 30.634094 26.658204
2006-03-29 07:35:07 51°19.668 2°44.336 -999 2.971114 29.788423 35.388939
2006-03-29 07:36:08 51°19.765 2°43.994 -999 2.734954 27.18604 29.11899
2006-03-29 07:37:08 51°19.859 2°43.656 -999 2.099744 20.356485 25.309828
2006-03-29 07:38:08 51°19.954 2°43.321 -999 2.771549 27.602304 35.254101
2006-03-29 07:39:08 51°20.046 2°42.985 -999 2.731129 27.162481 31.916871
2006-03-29 07:40:08 51°20.134 2°42.648 -999 2.839888 28.32685 37.074409
2006-03-29 07:41:08 51°20.219 2°42.308 -999 2.557601 25.220097 31.074136
2006-03-29 07:42:07 51°20.292 2°41.963 -999 3.106928 31.221415 24.736768
2006-03-29 07:43:08 51°20.36 2°41.603 -999 3.041446 30.461449 38.085691
2006-03-29 07:44:08 51°20.428 2°41.253 -999 3.025827 30.273399 35.658614
2006-03-29 07:45:08 51°20.488 2°40.898 -999 2.888278 28.759503 41.726306
2006-03-29 07:46:08 51°20.53 2°40.533 -999 2.554397 25.117194 26.253691
2006-03-29 07:47:08 51°20.574 2°40.168 -999 3.157933 31.713539 27.096426
2006-03-29 07:48:08 51°20.615 2°39.802 -999 3.189077 32.059077 23.725486
2006-03-29 07:49:08 51°20.658 2°39.436 -999 3.243921 32.663967 35.456358
2006-03-29 07:50:07 51°20.686 2°39.074 -999 3.178109 31.930775 32.085418
2006-03-29 07:51:08 51°20.713 2°38.701 -999 3.171901 31.842162 35.624905
2006-03-29 07:52:08 51°20.741 2°38.332 -999 3.204081 32.18748 40.917281
2006-03-29 07:53:08 51°20.766 2°37.962 -999 2.883107 28.658692 33.905725
2006-03-29 07:54:08 51°20.79 2°37.591 -999 2.513479 24.658563 34.141691
2006-03-29 07:55:08 51°20.813 2°37.219 -999 2.992108 29.876746 40.9847
2006-03-29 07:56:08 51°20.848 2°36.846 -999 2.634176 25.959469 31.512358
2006-03-29 07:57:08 51°20.904 2°36.483 -999 2.870078 28.525462 35.32152
2006-03-29 07:58:08 51°20.959 2°36.117 -999 3.137344 31.467214 32.793315
2006-03-29 07:59:08 51°21.01 2°35.75 -999 3.016 30.12439 38.15311
2006-03-29 08:00:08 51°21.061 2°35.379 -999 2.68513 26.497424 36.771024
2006-03-29 08:01:08 51°21.112 2°35.009 -999 3.243403 32.649072 34.917007
2006-03-29 08:02:08 51°21.162 2°34.636 -999 3.16083 31.741309 33.366375
2006-03-29 08:03:08 51°21.215 2°34.264 -999 3.064099 30.666868 27.534648
2006-03-29 08:04:08 51°21.267 2°33.893 -999 2.667042 26.316569 31.680905
2006-03-29 08:05:08 51°21.392 2°33.604 -999 2.907201 28.931846 38.928426
2006-03-29 08:06:08 51°21.542 2°33.349 -999 3.279521 33.063376 30.366238
2006-03-29 08:07:08 51°21.706 2°33.133 -999 3.258719 32.813562 32.017999
2006-03-29 08:08:08 51°21.875 2°32.934 -999 3.171073 31.834741 41.591469
2006-03-29 08:09:07 51°22.039 2°32.729 -999 3.292871 33.157982 41.018409
2006-03-29 08:10:08 51°22.208 2°32.514 -999 3.16952 31.745721 30.737042
2006-03-29 08:11:07 51°22.37 2°32.298 -999 3.144378 31.461871 28.478512
2006-03-29 08:12:08 51°22.498 2°32.002 -999 3.221361 32.327501 32.085418
2006-03-29 08:13:08 51°22.521 2°31.629 -999 2.841126 28.153425 38.1194
2006-03-29 08:14:08 51°22.518 2°31.239 -999 2.881659 28.591785 31.714614
2006-03-29 08:15:08 51°22.517 2°30.85 -999 3.004519 29.944263 40.040836
2006-03-29 08:16:08 51°22.519 2°30.463 -999 3.066375 30.627912 39.26552
2006-03-29 08:17:08 51°22.518 2°30.079 -999 3.176246 31.853121 35.254101
2006-03-29 08:18:08 51°22.519 2°29.697 -999 3.223224 32.378877 38.658751
2006-03-29 08:19:08 51°22.518 2°29.316 -999 3.165589 31.75519 36.703606
2006-03-29 08:20:08 51°22.517 2°28.935 -999 3.111997 31.182591 36.164255
2006-03-29 08:21:08 51°22.516 2°28.552 -999 2.691952 26.58335 41.456631
2006-03-29 08:22:07 51°22.514 2°28.174 -999 2.996038 29.917585 35.254101
2006-03-29 08:23:08 51°22.511 2°27.779 -999 2.317618 22.559915 34.040563
2006-03-29 08:24:08 51°22.507 2°27.39 -999 2.770824 27.441129 31.916871
2006-03-29 08:25:08 51°22.506 2°27.005 -999 3.267826 32.914303 38.827298
2006-03-29 08:26:08 51°22.51 2°26.619 -999 2.835336 28.113677 36.400221
2006-03-29 08:27:08 51°22.531 2°26.242 -999 3.246921 32.635458 31.006717
2006-03-29 08:28:08 51°22.622 2°25.912 -999 3.317089 33.386643 30.298819
2006-03-29 08:29:08 51°22.782 2°25.692 -999 2.834095 28.033723 36.568768
2006-03-29 08:30:08 51°22.978 2°25.625 -999 3.318227 33.351969 32.017999
2006-03-29 08:31:08 51°23.178 2°25.589 -999 3.2908 33.03536 35.726033
2006-03-29 08:32:08 51°23.378 2°25.557 -999 3.223947 32.284322 37.209247
2006-03-29 08:33:08 51°23.576 2°25.53 -999 3.049409 30.351059 37.310375
2006-03-29 08:34:08 51°23.773 2°25.505 -999 3.075684 30.627503 32.624768
2006-03-29 08:35:08 51°23.968 2°25.494 -999 3.019515 29.994153 33.400084
2006-03-29 08:36:08 51°24.16 2°25.48 -999 3.058201 30.403054 36.366512
2006-03-29 08:37:08 51°24.35 2°25.466 -999 2.948047 29.192603 37.950853
2006-03-29 08:38:08 51°24.537 2°25.454 -999 3.002759 29.787217 37.344084
2006-03-29 08:39:08 51°24.686 2°25.461 -999 3.378986 33.944392 33.534922
2006-03-29 08:40:08 51°24.867 2°25.507 -999 2.753041 27.063134 36.366512
2006-03-29 08:41:08 51°25.051 2°25.551 -999 3.016722 29.936938 35.523777
2006-03-29 08:42:08 51°25.237 2°25.601 -999 2.804834 27.622866 35.152973
2006-03-29 08:43:08 51°25.427 2°25.659 -999 3.276207 32.807323 35.186683
2006-03-29 08:44:08 51°25.617 2°25.716 -999 3.237295 32.37308 35.89458
2006-03-29 08:45:08 51°25.806 2°25.775 -999 3.187833 31.829228 22.478238
2006-03-29 08:46:08 51°25.998 2°25.829 -999 2.881657 28.469753 32.355093
2006-03-29 08:47:08 51°26.189 2°25.887 -999 3.198388 31.948593 37.681178
2006-03-29 08:48:08 51°26.382 2°25.944 -999 2.970179 29.439514 40.108255
2006-03-29 08:49:08 51°26.575 2°26.006 -999 3.282934 32.885658 33.0967
2006-03-29 08:50:08 51°26.77 2°26.073 -999 3.328163 33.38014 38.490204
2006-03-29 08:51:08 51°26.964 2°26.144 -999 2.941635 29.116083 34.074272
2006-03-29 08:52:08 51°27.161 2°26.21 -999 3.067614 30.497214 34.74846
2006-03-29 08:53:08 51°27.356 2°26.277 -999 3.305496 33.126242 27.298683
2006-03-29 08:54:08 51°27.548 2°26.349 -999 3.171381 31.633389 35.759742
2006-03-29 08:55:08 51°27.742 2°26.421 -999 2.754901 27.086274 31.782033
2006-03-29 08:56:08 51°27.935 2°26.498 -999 2.280436 22.01237 37.950853
2006-03-29 08:57:08 51°28.135 2°26.504 -999 3.366461 33.822583 29.69205
2006-03-29 08:58:08 51°28.338 2°26.479 -999 2.832336 27.94002 37.816016
2006-03-29 08:59:07 51°28.537 2°26.462 -999 2.695671 26.458502 27.770614
2006-03-29 09:00:08 51°28.742 2°26.448 -999 3.33665 33.486668 35.186683
2006-03-29 09:01:08 51°28.946 2°26.435 -999 2.845054 28.075208 34.546204
2006-03-29 09:02:08 51°29.146 2°26.382 -999 2.586946 25.284127 31.040426
2006-03-29 09:03:08 51°29.34 2°26.277 -999 2.567415 25.080061 27.804324
2006-03-29 09:04:08 51°29.529 2°26.146 -999 2.927364 28.979514 31.276392
2006-03-29 09:05:08 51°29.718 2°26.008 -999 3.384682 34.282911 20.624221
2006-03-29 09:06:08 51°29.909 2°25.892 -999 3.394621 34.440015 19.410683
2006-03-29 09:07:08 51°30.103 2°25.795 -999 3.392343 34.427871 19.242136
2006-03-29 09:08:08 51°30.298 2°25.698 -999 3.375159 34.224695 19.376973
2006-03-29 09:09:08 51°30.492 2°25.636 -999 3.378886 34.280105 19.478101
2006-03-29 09:10:08 51°30.686 2°25.605 -999 3.371537 34.21941 19.410683
2006-03-29 09:11:08 51°30.882 2°25.592 -999 3.362117 34.133417 19.410683
2006-03-29 09:12:08 51°31.082 2°25.575 -999 3.356114 34.084916 19.444392
2006-03-29 09:13:08 51°31.278 2°25.572 -999 3.36719 34.221339 19.309554
2006-03-29 09:14:08 51°31.451 2°25.709 -999 3.37278 34.303699 19.309554
2006-03-29 09:15:08 51°31.621 2°25.855 -999 3.373918 34.318487 19.208426
2006-03-29 09:16:08 51°31.792 2°26.008 -999 3.370399 34.284533 19.174717
2006-03-29 09:17:08 51°31.964 2°26.162 -999 3.371538 34.304149 19.107298
2006-03-29 09:18:08 51°32.134 2°26.321 -999 3.370813 34.296929 19.073589
2006-03-29 09:19:08 51°32.307 2°26.473 -999 3.373194 34.324789 19.073589
2006-03-29 09:20:08 51°32.481 2°26.629 -999 3.371434 34.314568 19.039879
2006-03-29 09:21:08 51°32.652 2°26.785 -999 3.373504 34.305126 19.039879
2006-03-29 09:22:08 51°32.819 2°26.943 -999 3.37278 34.312386 18.938751
2006-03-29 09:23:08 51°32.995 2°27.094 -999 3.369778 34.276555 18.905042
2006-03-29 09:24:08 51°33.173 2°27.237 -999 3.370813 34.299825 18.871332
2006-03-29 09:25:08 51°33.351 2°27.378 -999 3.371952 34.311723 18.837623
2006-03-29 09:26:08 51°33.53 2°27.516 -999 3.370917 34.304857 18.97246
2006-03-29 09:27:08 51°33.715 2°27.635 -999 3.37454 34.350627 18.97246
2006-03-29 09:28:08 51°33.903 2°27.74 -999 3.371331 34.316297 18.905042
2006-03-29 09:29:08 51°34.091 2°27.84 -999 3.369985 34.307853 18.871332
2006-03-29 09:30:08 51°34.283 2°27.934 -999 3.366052 34.279813 18.803913
2006-03-29 09:31:08 51°34.471 2°28.031 -999 3.359324 34.219186 18.803913
2006-03-29 09:32:08 51°34.656 2°28.133 -999 3.359738 34.232553 18.803913
2006-03-29 09:33:08 51°34.844 2°28.241 -999 3.359428 34.236764 18.837623
2006-03-29 09:34:08 51°35.034 2°28.343 -999 3.35508 34.197234 18.871332
2006-03-29 09:35:08 51°35.222 2°28.448 -999 3.356426 34.216319 18.871332
2006-03-29 09:36:08 51°35.401 2°28.588 -999 3.356426 34.209562 18.871332
2006-03-29 09:37:08 51°35.557 2°28.79 -999 3.358289 34.241267 18.770204
2006-03-29 09:38:08 51°35.72 2°28.975 -999 3.359014 34.250435 18.736494
2006-03-29 09:39:08 51°35.882 2°29.156 -999 3.352078 34.160385 18.669076
2006-03-29 09:40:08 51°36.048 2°29.335 -999 3.36274 34.285842 18.669076
2006-03-29 09:41:08 51°36.214 2°29.514 -999 3.355287 34.201506 18.669076
2006-03-29 09:42:08 51°36.383 2°29.679 -999 3.360463 34.24944 18.601657
2006-03-29 09:43:08 51°36.553 2°29.841 -999 3.365121 34.294405 18.567947
2006-03-29 09:44:08 51°36.718 2°30.018 -999 3.365224 34.292675 18.601657
2006-03-29 09:45:08 51°36.883 2°30.194 -999 3.360359 34.23282 18.466819
2006-03-29 09:46:08 51°37.049 2°30.368 -999 3.363775 34.275316 18.466819
2006-03-29 09:47:08 51°37.216 2°30.554 -999 3.354148 34.174161 18.500529
2006-03-29 09:48:08 51°37.388 2°30.726 -999 3.359221 34.248912 18.3994
2006-03-29 09:49:08 51°37.551 2°30.91 -999 3.359428 34.258988 18.43311
2006-03-29 09:50:08 51°37.718 2°31.091 -999 3.354149 34.220486 18.466819
2006-03-29 09:51:08 51°37.888 2°31.266 -999 3.352803 34.220713 18.466819
2006-03-29 09:52:08 51°38.057 2°31.448 -999 3.351251 34.213759 18.365691
2006-03-29 09:53:08 51°38.229 2°31.623 -999 3.349492 34.213162 18.331982
2006-03-29 09:54:08 51°38.405 2°31.788 -999 3.352183 34.247549 18.264563
2006-03-29 09:55:08 51°38.58 2°31.952 -999 3.35032 34.24192 18.230853
2006-03-29 09:56:08 51°38.758 2°32.12 -999 3.34856 34.22874 18.264563
2006-03-29 09:57:08 51°38.939 2°32.29 -999 3.348146 34.236642 18.298272
2006-03-29 09:58:08 51°39.115 2°32.444 -999 3.342557 34.178054 18.331982
2006-03-29 09:59:08 51°39.267 2°32.659 -999 3.341108 34.14807 18.264563
2006-03-29 10:00:08 51°39.403 2°32.908 -999 3.343799 34.182468 18.264563
2006-03-29 10:01:08 51°39.545 2°33.152 -999 3.346594 34.211271 18.230853
2006-03-29 10:02:08 51°39.686 2°33.393 -999 3.34266 34.176324 18.264563
2006-03-29 10:03:08 51°39.83 2°33.63 -999 3.349595 34.2463 18.230853
2006-03-29 10:04:08 51°39.979 2°33.861 -999 3.34028 34.142544 18.298272
2006-03-29 10:05:08 51°40.131 2°34.09 -999 3.344213 34.194911 18.264563
2006-03-29 10:06:08 51°40.286 2°34.313 -999 3.34649 34.209128 18.197144
2006-03-29 10:07:08 51°40.443 2°34.536 -999 3.351148 34.245498 18.163435
2006-03-29 10:08:08 51°40.602 2°34.753 -999 3.35239 34.268314 18.197144
2006-03-29 10:09:08 51°40.761 2°34.973 -999 3.347732 34.212567 18.197144
2006-03-29 10:10:08 51°40.92 2°35.194 -999 3.343074 34.155874 18.230853
2006-03-29 10:11:08 51°41.079 2°35.412 -999 3.349078 34.223956 18.197144
2006-03-29 10:12:08 51°41.239 2°35.632 -999 3.347008 34.202413 18.264563
2006-03-29 10:13:08 51°41.387 2°35.868 -999 3.35063 34.243504 18.230853
2006-03-29 10:14:08 51°41.515 2°36.134 -999 3.347421 34.202269 18.264563
2006-03-29 10:15:08 51°41.546 2°36.47 -999 3.35063 34.241566 18.264563
2006-03-29 10:16:08 51°41.444 2°36.782 -999 3.347214 34.197019 18.264563
2006-03-29 10:17:08 51°41.31 2°37.078 -999 3.34028 34.134813 18.298272
2006-03-29 10:18:08 51°41.178 2°37.378 -999 3.343903 34.190419 18.365691
2006-03-29 10:19:08 51°41.048 2°37.68 -999 3.340797 34.168731 18.466819
2006-03-29 10:20:08 51°40.919 2°37.983 -999 3.331275 34.069357 18.500529
2006-03-29 10:21:08 51°40.788 2°38.282 -999 3.335208 34.129471 18.466819
2006-03-29 10:22:08 51°40.656 2°38.581 -999 3.327446 34.046161 18.3994
2006-03-29 10:23:08 51°40.529 2°38.884 -999 3.3261 34.04923 18.534238
2006-03-29 10:24:08 51°40.406 2°39.194 -999 3.320615 33.996574 18.736494
2006-03-29 10:25:08 51°40.284 2°39.504 -999 3.31751 33.965162 18.669076
2006-03-29 10:26:08 51°40.161 2°39.812 -999 3.326411 34.065322 18.534238
2006-03-29 10:27:08 51°40.039 2°40.12 -999 3.321753 34.002752 18.43311
2006-03-29 10:28:08 51°39.916 2°40.428 -999 3.317923 33.956372 18.331982
2006-03-29 10:29:08 51°39.79 2°40.736 -999 3.320201 33.983191 18.365691
2006-03-29 10:30:08 51°39.67 2°41.049 -999 3.318027 33.960437 18.466819
2006-03-29 10:31:08 51°39.55 2°41.36 -999 3.319062 33.979904 18.500529
2006-03-29 10:32:08 51°39.429 2°41.673 -999 3.318545 33.982706 18.601657
2006-03-29 10:33:08 51°39.276 2°41.951 -999 3.323409 34.036047 18.669076
2006-03-29 10:34:08 51°39.068 2°42.104 -999 3.312024 33.912487 18.736494
2006-03-29 10:35:08 51°38.836 2°42.101 -999 3.312024 33.920192 18.736494
2006-03-29 10:36:08 51°38.605 2°42.097 -999 3.311093 33.918278 18.803913
2006-03-29 10:37:08 51°38.373 2°42.099 -999 3.307988 33.89166 18.905042
2006-03-29 10:38:08 51°38.142 2°42.105 -999 3.306021 33.865463 18.905042
2006-03-29 10:39:08 51°37.913 2°42.113 -999 3.309437 33.903312 18.938751
2006-03-29 10:40:08 51°37.683 2°42.102 -999 3.311714 33.928227 19.00617
2006-03-29 10:41:08 51°37.464 2°42.029 -999 3.306746 33.86696 19.073589
2006-03-29 10:42:08 51°37.338 2°41.756 -999 3.308712 33.882565 19.073589
2006-03-29 10:43:08 51°37.311 2°41.416 -999 3.311403 33.916989 19.107298
2006-03-29 10:44:08 51°37.296 2°41.08 -999 3.314094 33.930222 19.039879
2006-03-29 10:45:08 51°37.29 2°40.743 -999 3.317406 33.95724 19.039879
2006-03-29 10:46:08 51°37.29 2°40.406 -999 3.317716 33.947279 19.00617
2006-03-29 10:47:08 51°37.291 2°40.065 -999 3.31989 33.961358 19.00617
2006-03-29 10:48:08 51°37.29 2°39.721 -999 3.327135 34.038775 18.97246
2006-03-29 10:49:08 51°37.292 2°39.376 -999 3.328998 34.052201 18.97246
2006-03-29 10:50:08 51°37.293 2°39.032 -999 3.326721 34.024429 18.97246
2006-03-29 10:51:08 51°37.294 2°38.688 -999 3.328584 34.039783 18.97246
2006-03-29 10:52:08 51°37.298 2°38.345 -999 3.328377 34.046118 19.107298
2006-03-29 10:53:08 51°37.301 2°38.004 -999 3.328274 34.054596 19.174717
2006-03-29 10:54:08 51°37.312 2°37.664 -999 3.329412 34.071387 19.107298
2006-03-29 10:55:08 51°37.331 2°37.324 -999 3.332207 34.092488 19.073589
2006-03-29 10:56:08 51°37.348 2°36.983 -999 3.33438 34.103631 19.073589
2006-03-29 10:57:08 51°37.365 2°36.642 -999 3.329412 34.039533 19.141007
2006-03-29 10:58:08 51°37.38 2°36.299 -999 3.334898 34.104673 19.174717
2006-03-29 10:59:08 51°37.398 2°35.957 -999 3.331896 34.064821 19.242136
2006-03-29 11:00:08 51°37.417 2°35.616 -999 3.330033 34.054297 19.343264
2006-03-29 11:01:08 51°37.44 2°35.278 -999 3.330136 34.049682 19.410683
2006-03-29 11:02:08 51°37.465 2°34.945 -999 3.334276 34.086036 19.444392
2006-03-29 11:03:08 51°37.467 2°34.62 -999 3.33676 34.09201 19.343264
2006-03-29 11:04:08 51°37.372 2°34.346 -999 3.339555 34.116939 19.309554
2006-03-29 11:05:08 51°37.229 2°34.12 -999 3.341004 34.119852 19.376973
2006-03-29 11:06:08 51°37.036 2°34.008 -999 3.347628 34.19204 19.343264
2006-03-29 11:07:08 51°36.831 2°33.925 -999 3.347835 34.182786 19.511811
2006-03-29 11:08:08 51°36.629 2°33.831 -999 3.352183 34.228185 19.511811
2006-03-29 11:09:08 51°36.431 2°33.721 -999 3.347421 34.153954 19.511811
2006-03-29 11:10:08 51°36.233 2°33.609 -999 3.348353 34.162573 19.57923
2006-03-29 11:11:08 51°36.036 2°33.493 -999 3.35063 34.17774 19.646648
2006-03-29 11:12:08 51°35.84 2°33.376 -999 3.350422 34.159962 19.680358
2006-03-29 11:13:08 51°35.646 2°33.254 -999 3.353114 34.188489 19.815195
2006-03-29 11:14:08 51°35.448 2°33.143 -999 3.35477 34.196615 19.747777
2006-03-29 11:15:08 51°35.251 2°33.03 -999 3.353942 34.19786 19.815195
2006-03-29 11:16:08 51°35.055 2°32.921 -999 3.351665 34.175948 19.781486
2006-03-29 11:17:08 51°34.859 2°32.815 -999 3.350423 34.170572 19.747777
2006-03-29 11:18:08 51°34.663 2°32.705 -999 3.349802 34.169331 19.815195
2006-03-29 11:19:08 51°34.466 2°32.598 -999 3.350216 34.181741 19.916324
2006-03-29 11:20:08 51°34.27 2°32.49 -999 3.349077 34.159198 19.848905
2006-03-29 11:21:08 51°34.074 2°32.382 -999 3.349801 34.159684 19.848905
2006-03-29 11:22:08 51°33.878 2°32.275 -999 3.350319 34.156863 19.848905
2006-03-29 11:23:08 51°33.681 2°32.169 -999 3.352285 34.167545 19.815195
2006-03-29 11:24:08 51°33.486 2°32.059 -999 3.353631 34.178911 19.916324
2006-03-29 11:25:08 51°33.29 2°31.95 -999 3.355184 34.189724 19.950033
2006-03-29 11:26:08 51°33.095 2°31.841 -999 3.357978 34.206864 20.017452
2006-03-29 11:27:08 51°32.9 2°31.733 -999 3.355804 34.173616 20.152289
2006-03-29 11:28:08 51°32.706 2°31.622 -999 3.358703 34.189997 20.152289
2006-03-29 11:29:08 51°32.512 2°31.512 -999 3.361704 34.2085 20.185999
2006-03-29 11:30:08 51°32.307 2°31.47 -999 3.362429 34.213794 20.287127
2006-03-29 11:31:08 51°32.099 2°31.457 -999 3.370399 34.278746 20.354546
2006-03-29 11:32:08 51°31.906 2°31.605 -999 3.372055 34.274307 20.388255
2006-03-29 11:33:08 51°31.715 2°31.777 -999 3.374953 34.274257 20.489383
2006-03-29 11:34:08 51°31.524 2°31.942 -999 3.377541 34.281294 20.421965
2006-03-29 11:35:08 51°31.391 2°32.233 -999 3.378576 34.280453 20.185999
2006-03-29 11:36:08 51°31.278 2°32.56 -999 3.376505 34.274439 20.253418
2006-03-29 11:37:08 51°31.165 2°32.886 -999 3.372055 34.248313 20.421965
2006-03-29 11:38:08 51°31.053 2°33.214 -999 3.376713 34.310478 20.455674
2006-03-29 11:39:08 51°30.939 2°33.546 -999 3.368121 34.225115 20.489383
2006-03-29 11:40:08 51°30.819 2°33.885 -999 3.367915 34.240102 20.489383
2006-03-29 11:41:08 51°30.696 2°34.232 -999 3.36895 34.244081 20.65793
2006-03-29 11:42:08 51°30.571 2°34.565 -999 3.37133 34.24399 20.556802
2006-03-29 11:43:08 51°30.453 2°34.892 -999 3.374022 34.299393 20.792768
2006-03-29 11:44:08 51°30.339 2°35.214 -999 3.376092 34.338207 20.759059
2006-03-29 11:45:08 51°30.231 2°35.541 -999 3.369881 34.25941 20.826477
2006-03-29 11:46:08 51°30.117 2°35.863 -999 3.369985 34.252873 20.759059
2006-03-29 11:47:08 51°30.002 2°36.186 -999 3.370502 34.24331 20.523093
2006-03-29 11:48:08 51°29.886 2°36.512 -999 3.367293 34.220583 20.556802
2006-03-29 11:49:08 51°29.759 2°36.826 -999 3.36719 34.23 20.65793
2006-03-29 11:50:08 51°29.593 2°37.079 -999 3.368328 34.226488 20.489383
2006-03-29 11:51:08 51°29.411 2°37.287 -999 3.364498 34.191938 20.354546
2006-03-29 11:52:08 51°29.22 2°37.446 -999 3.360565 34.179279 20.388255
2006-03-29 11:53:08 51°29.031 2°37.602 -999 3.360462 34.18292 20.219708
2006-03-29 11:54:08 51°28.844 2°37.758 -999 3.359013 34.180027 20.253418
2006-03-29 11:55:08 51°28.656 2°37.918 -999 3.349076 34.102385 20.455674
2006-03-29 11:56:08 51°28.466 2°38.08 -999 3.345764 34.101484 20.556802
2006-03-29 11:57:08 51°28.274 2°38.226 -999 3.353424 34.174641 20.455674
2006-03-29 11:58:08 51°28.082 2°38.367 -999 3.3468 34.109343 20.455674
2006-03-29 11:59:08 51°27.89 2°38.509 -999 3.341624 34.064268 20.421965
2006-03-29 12:00:08 51°27.703 2°38.674 -999 3.340279 34.057699 20.388255
2006-03-29 12:01:08 51°27.515 2°38.844 -999 3.339865 34.058784 20.354546
2006-03-29 12:02:08 51°27.328 2°39.012 -999 3.339865 34.056861 20.388255
2006-03-29 12:03:08 51°27.138 2°39.168 -999 3.338519 34.041634 20.489383
2006-03-29 12:04:08 51°26.948 2°39.323 -999 3.335311 34.018779 20.523093
2006-03-29 12:05:08 51°26.758 2°39.478 -999 3.334172 34.013581 20.523093
2006-03-29 12:06:08 51°26.569 2°39.635 -999 3.329411 33.960649 20.556802
2006-03-29 12:07:08 51°26.379 2°39.789 -999 3.331377 33.972348 20.523093
2006-03-29 12:08:08 51°26.189 2°39.945 -999 3.328686 33.944776 20.590512
2006-03-29 12:09:08 51°25.997 2°40.101 -999 3.323408 33.904212 20.69164
2006-03-29 12:10:08 51°25.806 2°40.258 -999 3.325789 33.939793 20.69164
2006-03-29 12:11:08 51°25.617 2°40.419 -999 3.317509 33.867125 20.860187
2006-03-29 12:12:08 51°25.427 2°40.576 -999 3.32227 33.937377 20.927606
2006-03-29 12:13:08 51°25.236 2°40.732 -999 3.303433 33.758385 21.096153
2006-03-29 12:14:08 51°25.047 2°40.889 -999 3.30126 33.725149 20.826477
2006-03-29 12:15:08 51°24.856 2°41.041 -999 3.296499 33.709411 21.028734
2006-03-29 12:16:08 51°24.664 2°41.181 -999 3.286667 33.624632 21.129862
2006-03-29 12:17:08 51°24.463 2°41.24 -999 3.282217 33.586543 21.298409
2006-03-29 12:18:08 51°24.263 2°41.298 -999 3.280251 33.563278 21.534375
2006-03-29 12:19:08 51°24.061 2°41.361 -999 3.282217 33.555096 21.298409
2006-03-29 12:20:08 51°23.859 2°41.417 -999 3.287908 33.568209 20.860187
2006-03-29 12:21:08 51°23.667 2°41.365 -999 3.292979 33.600888 20.860187
2006-03-29 12:22:08 51°23.475 2°41.3 -999 3.301569 33.672387 20.893896
2006-03-29 12:23:08 51°23.283 2°41.237 -999 3.300638 33.673277 21.163571
2006-03-29 12:24:08 51°23.09 2°41.18 -999 3.302708 33.697654 21.163571
2006-03-29 12:25:08 51°22.897 2°41.127 -999 3.300535 33.674011 21.197281
2006-03-29 12:26:08 51°22.705 2°41.071 -999 3.300121 33.663612 21.2647
2006-03-29 12:27:08 51°22.512 2°41.016 -999 3.297119 33.650598 21.332118
2006-03-29 12:28:08 51°22.317 2°40.968 -999 3.291945 33.613913 21.500665
2006-03-29 12:29:08 51°22.123 2°40.918 -999 3.285839 33.541925 21.635503
2006-03-29 12:30:08 51°21.929 2°40.862 -999 3.284493 33.518152 21.80405
2006-03-29 12:31:08 51°21.735 2°40.81 -999 3.287287 33.544077 21.534375
2006-03-29 12:32:08 51°21.533 2°40.847 -999 3.28946 33.545881 21.23099
2006-03-29 12:33:08 51°21.332 2°40.91 -999 3.293911 33.573423 21.332118
2006-03-29 12:34:08 51°21.133 2°41.018 -999 3.298671 33.628196 21.534375
2006-03-29 12:35:08 51°20.947 2°41.185 -999 3.306848 33.714942 21.635503
2006-03-29 12:36:08 51°20.85 2°41.517 -999 3.316266 33.786148 21.466956
2006-03-29 12:37:08 51°20.788 2°41.894 -999 3.300844 33.616661 21.972597
2006-03-29 12:38:08 51°20.717 2°42.272 -999 3.308917 33.689792 21.568084
2006-03-29 12:39:08 51°20.644 2°42.647 -999 3.302603 33.588171 21.197281
2006-03-29 12:40:08 51°20.567 2°43.017 -999 3.305087 33.624724 21.197281
2006-03-29 12:41:08 51°20.49 2°43.388 -999 3.299292 33.565009 21.129862
2006-03-29 12:42:08 51°20.41 2°43.754 -999 3.282215 33.375231 21.096153
2006-03-29 12:43:08 51°20.331 2°44.122 -999 3.279421 33.343727 21.096153
2006-03-29 12:44:08 51°20.244 2°44.486 -999 3.275281 33.30082 21.197281
2006-03-29 12:45:08 51°20.166 2°44.845 -999 3.271762 33.283691 21.332118
2006-03-29 12:46:08 51°20.089 2°45.199 -999 3.262552 33.20983 21.466956
2006-03-29 12:47:08 51°20.012 2°45.56 -999 3.243925 33.014654 21.433247
2006-03-29 12:48:08 51°19.919 2°45.919 -999 3.236784 32.935992 21.2647
2006-03-29 12:49:08 51°19.823 2°46.276 -999 3.234611 32.918003 21.399537
2006-03-29 12:50:08 51°19.732 2°46.63 -999 3.233473 32.94056 21.534375
2006-03-29 12:51:08 51°19.635 2°46.977 -999 3.227575 32.873053 21.601794
2006-03-29 12:52:08 51°19.537 2°47.322 -999 3.227161 32.868381 21.80405
2006-03-29 12:53:08 51°19.434 2°47.66 -999 3.226023 32.857396 22.309691
2006-03-29 12:54:08 51°19.331 2°47.997 -999 3.226643 32.859752 22.983879
2006-03-29 12:55:08 51°19.226 2°48.331 -999 3.229644 32.872218 22.882751
2006-03-29 12:56:08 51°19.114 2°48.656 -999 3.232955 32.876094 22.680494
2006-03-29 12:57:08 51°18.998 2°48.974 -999 3.195807 32.500099 23.219845
2006-03-29 12:58:08 51°18.881 2°49.295 -999 3.179562 32.368476 25.040153
2006-03-29 12:59:08 51°18.762 2°49.617 -999 3.176044 32.319665 25.613212
2006-03-29 13:00:08 51°18.644 2°49.936 -999 3.182355 32.337666 24.669349
2006-03-29 13:01:08 51°18.526 2°50.253 -999 3.183286 32.325294 25.040153
2006-03-29 13:02:08 51°18.405 2°50.568 -999 3.194461 32.382367 25.276118
2006-03-29 13:03:08 51°18.29 2°50.891 -999 3.205635 32.438364 24.332255
2006-03-29 13:04:08 51°18.169 2°51.205 -999 3.225192 32.578869 23.792905
2006-03-29 13:05:08 51°18.041 2°51.505 -999 3.246923 32.754198 23.759195
2006-03-29 13:06:08 51°17.898 2°51.782 -999 3.26348 32.87496 24.770477
2006-03-29 13:07:08 51°17.739 2°52.022 -999 3.272276 32.944673 26.826751
2006-03-29 13:08:08 51°17.566 2°52.231 -999 3.275174 32.976096 25.882888
2006-03-29 13:09:08 51°17.378 2°52.395 -999 3.268861 32.873534 24.365965
2006-03-29 13:10:08 51°17.19 2°52.555 -999 3.273103 32.881424 25.040153
2006-03-29 13:11:08 51°17.001 2°52.718 -999 3.260685 32.795212 26.523366
2006-03-29 13:12:08 51°16.812 2°52.885 -999 3.252096 32.716815 27.804324
2006-03-29 13:13:08 51°16.625 2°53.064 -999 3.265031 32.804333 25.613212
2006-03-29 13:14:08 51°16.435 2°53.237 -999 3.283141 32.917184 24.467093
2006-03-29 13:15:08 51°16.248 2°53.417 -999 3.295042 32.966208 24.129999
2006-03-29 13:16:08 51°16.058 2°53.589 -999 3.300423 32.956552 24.500802
2006-03-29 13:17:08 51°15.868 2°53.765 -999 3.297008 32.903282 25.040153
2006-03-29 13:18:08 51°15.703 2°53.908 -999 3.29856 32.874159 25.309828
2006-03-29 13:19:08 51°15.532 2°54.058 -999 3.297214 32.823088 25.410956
2006-03-29 13:20:08 51°15.35 2°54.196 -999 3.306735 32.893782 25.006443
2006-03-29 13:21:08 51°15.168 2°54.326 -999 3.320086 32.964024 25.613212
2006-03-29 13:22:08 51°14.989 2°54.466 -999 3.334886 33.039121 26.017725
2006-03-29 13:23:08 51°14.816 2°54.622 -999 3.352068 33.212571 42.872426
2006-03-29 13:24:08 51°14.644 2°54.781 -999 3.349894 33.190492 36.602477
2006-03-29 13:25:08 51°14.472 2°54.946 -999 3.349791 33.192078 36.096836
2006-03-29 13:26:08 51°14.319 2°55.15 -999 3.349894 33.188677 35.759742
2006-03-29 13:27:08 51°14.208 2°55.339 -999 3.350308 33.168733 35.557486
2006-03-29 13:28:08 51°14.104 2°55.425 -999 3.351343 33.170131 35.152973
2006-03-29 13:29:08 51°14.012 2°55.494 -999 3.353102 33.164086 34.984426
2006-03-29 13:30:08 51°13.92 2°55.559 -999 3.355586 33.159668 35.018136
2006-03-29 13:31:07 51°13.83 2°55.625 -999 3.358691 33.164779 35.119264
2006-03-29 13:32:08 51°13.748 2°55.714 -999 3.362417 33.17759 35.254101
2006-03-29 13:33:10 51°13.689 2°55.822 -999 3.366454 33.189274 35.32152
2006-03-29 13:34:12 51°13.651 2°55.916 -999 3.370801 33.203438 35.388939
2006-03-29 13:35:12 51°13.625 2°55.995 -999 3.375252 33.22052 35.388939
2006-03-29 13:36:12 51°13.604 2°56.07 -999 3.379599 33.233749 35.35523
2006-03-29 13:37:12 51°13.598 2°56.092 -999 3.37111 33.107934 35.287811
2006-03-29 13:38:12 51°13.598 2°56.092 -999 3.375251 33.120786 35.220392